Time;durP1;ratioP1;P1;durP2;ratioP2;P2;SDS_P1;SDS_P2;PMS_P1;PMS_P2;Temp;Humidity;BMP_temperature;BMP_pressure;BME280_temperature;BME280_humidity;BME280_pressure;Samples;Min_cycle;Max_cycle;Signal;HPM_P1;HPM_P2
2021/08/05 00:01:17;;;;;;;4.53;4.13;;;15.60;99.90;;;;;;5011526;28;20195;-66
2021/08/05 00:03:45;;;;;;;4.82;3.90;;;15.50;99.90;;;;;;5010883;28;20286;-66
2021/08/05 00:06:12;;;;;;;5.43;4.93;;;15.40;99.90;;;;;;5008939;28;20221;-66
2021/08/05 00:08:39;;;;;;;4.70;4.40;;;15.40;99.90;;;;;;5012401;28;20301;-66
2021/08/05 00:11:06;;;;;;;4.90;4.50;;;15.30;99.90;;;;;;5012357;28;20199;-66
2021/08/05 00:13:33;;;;;;;4.60;4.20;;;15.30;99.90;;;;;;5010777;28;20306;-66
2021/08/05 00:16:00;;;;;;;4.63;4.32;;;15.20;99.90;;;;;;5011434;28;20321;-66
2021/08/05 00:18:27;;;;;;;7.88;4.60;;;15.20;99.90;;;;;;5012420;28;20329;-66
2021/08/05 00:20:55;;;;;;;5.13;4.60;;;15.20;99.90;;;;;;5012574;28;20308;-66
2021/08/05 00:23:22;;;;;;;5.43;4.93;;;15.20;99.90;;;;;;5030664;28;20309;-67
2021/08/05 00:25:48;;;;;;;8.25;4.60;;;15.20;99.90;;;;;;5029676;28;20295;-66
2021/08/05 00:28:15;;;;;;;5.07;4.68;;;15.10;99.90;;;;;;5026175;28;20199;-66
2021/08/05 00:30:42;;;;;;;5.35;4.95;;;15.10;99.90;;;;;;5010185;28;20214;-66
2021/08/05 00:33:09;;;;;;;6.97;5.20;;;15.10;99.90;;;;;;5010408;28;20625;-66
2021/08/05 00:35:36;;;;;;;4.97;4.57;;;15.10;99.90;;;;;;5009876;28;20234;-66
2021/08/05 00:38:04;;;;;;;4.32;4.00;;;15.10;99.90;;;;;;5012404;28;20341;-66
2021/08/05 00:40:31;;;;;;;5.47;5.07;;;15.00;99.90;;;;;;5013622;28;20213;-66
2021/08/05 00:42:57;;;;;;;6.20;4.60;;;15.00;99.90;;;;;;5011817;28;20207;-67
2021/08/05 00:45:25;;;;;;;4.80;4.35;;;15.00;99.90;;;;;;5010712;28;20286;-66
2021/08/05 00:47:51;;;;;;;4.75;4.38;;;15.00;99.90;;;;;;5021452;28;20292;-66
2021/08/05 00:50:18;;;;;;;4.85;4.45;;;15.10;99.90;;;;;;5012744;28;20203;-67
2021/08/05 00:52:46;;;;;;;5.60;5.20;;;15.10;99.90;;;;;;5013070;28;20207;-66
2021/08/05 00:55:14;;;;;;;5.05;4.60;;;15.10;99.90;;;;;;5016005;28;20206;-67
2021/08/05 00:57:41;;;;;;;5.72;5.32;;;15.10;99.90;;;;;;5031667;28;20236;-66
2021/08/05 01:00:10;;;;;;;5.25;4.80;;;15.10;99.90;;;;;;5013543;28;20214;-67
2021/08/05 01:02:46;;;;;;;5.53;5.07;;;15.10;99.90;;;;;;5011260;28;20203;-66
2021/08/05 01:05:15;;;;;;;6.47;5.13;;;15.10;99.90;;;;;;5011599;28;20293;-66
2021/08/05 01:07:44;;;;;;;5.10;4.70;;;15.00;99.90;;;;;;5012940;28;20306;-67
2021/08/05 01:10:15;;;;;;;5.95;5.30;;;15.10;99.90;;;;;;5029675;28;20191;-66
2021/08/05 01:12:47;;;;;;;7.70;4.93;;;15.10;99.90;;;;;;5023041;28;20730;-66
2021/08/05 01:15:16;;;;;;;5.90;5.30;;;15.10;99.90;;;;;;5010505;28;20199;-66
2021/08/05 01:17:48;;;;;;;5.70;5.20;;;15.10;99.90;;;;;;5009470;28;20317;-66
2021/08/05 01:20:19;;;;;;;5.38;4.97;;;15.10;99.90;;;;;;5028994;28;20574;-66
2021/08/05 01:22:55;;;;;;;5.10;4.70;;;15.10;99.90;;;;;;5027334;28;20686;-66
2021/08/05 01:25:32;;;;;;;4.85;4.53;;;15.10;99.90;;;;;;5028848;28;20706;-66
2021/08/05 01:28:02;;;;;;;5.60;5.10;;;15.10;99.90;;;;;;5028803;28;20717;-66
2021/08/05 01:30:30;;;;;;;5.72;5.10;;;15.10;99.90;;;;;;5025143;28;20301;-66
2021/08/05 01:32:57;;;;;;;7.25;4.95;;;15.10;99.90;;;;;;5030591;28;20301;-67
2021/08/05 01:35:26;;;;;;;6.05;5.55;;;15.10;99.90;;;;;;5028362;28;20298;-66
2021/08/05 01:37:53;;;;;;;5.25;4.85;;;15.00;99.90;;;;;;5029475;28;20316;-66
2021/08/05 01:40:21;;;;;;;5.90;5.40;;;15.00;99.90;;;;;;5030914;28;20194;-66
2021/08/05 01:42:49;;;;;;;6.78;6.10;;;15.00;99.90;;;;;;5030856;28;20333;-66
2021/08/05 01:45:17;;;;;;;5.43;4.93;;;14.90;99.90;;;;;;5030283;28;20204;-66
2021/08/05 01:47:45;;;;;;;6.22;5.82;;;15.00;99.90;;;;;;5014714;28;20558;-66
2021/08/05 01:50:14;;;;;;;7.15;5.40;;;15.00;99.90;;;;;;5012110;28;20195;-66
2021/08/05 01:52:42;;;;;;;6.20;5.70;;;14.90;99.90;;;;;;5011615;28;20246;-67
2021/08/05 01:55:10;;;;;;;5.38;4.97;;;14.90;99.90;;;;;;5010098;28;20210;-66
2021/08/05 01:57:37;;;;;;;6.93;6.22;;;14.90;99.90;;;;;;5011010;28;20239;-67
2021/08/05 02:00:07;;;;;;;5.72;5.22;;;14.90;99.90;;;;;;5011007;28;20199;-67
2021/08/05 02:02:35;;;;;;;6.45;5.95;;;14.90;99.90;;;;;;5011647;28;20257;-66
2021/08/05 02:05:06;;;;;;;6.20;5.70;;;14.90;99.90;;;;;;5011123;28;20573;-66
2021/08/05 02:07:35;;;;;;;6.15;5.65;;;14.90;99.90;;;;;;5011615;28;20234;-66
2021/08/05 02:10:05;;;;;;;5.97;5.47;;;14.90;99.90;;;;;;5014272;28;20210;-66
2021/08/05 02:12:39;;;;;;;5.13;4.72;;;14.90;99.90;;;;;;5012131;28;20229;-66
2021/08/05 02:15:07;;;;;;;6.55;6.03;;;14.90;99.90;;;;;;5011214;28;20297;-66
2021/08/05 02:17:39;;;;;;;6.13;5.63;;;15.00;99.90;;;;;;5011583;28;20235;-66
2021/08/05 02:20:09;;;;;;;5.43;4.93;;;14.90;99.90;;;;;;5011723;28;20293;-66
2021/08/05 02:22:39;;;;;;;6.60;6.00;;;15.00;99.90;;;;;;5010385;28;20225;-66
2021/08/05 02:25:07;;;;;;;7.15;5.60;;;14.80;99.90;;;;;;5014484;28;20286;-66
2021/08/05 02:27:34;;;;;;;6.10;5.60;;;14.80;99.90;;;;;;5015056;28;20207;-66
2021/08/05 02:30:01;;;;;;;6.13;5.53;;;14.70;99.90;;;;;;5015347;28;20238;-66
2021/08/05 02:32:29;;;;;;;6.00;5.10;;;14.70;99.90;;;;;;5015069;28;20643;-67
2021/08/05 02:35:00;;;;;;;5.60;5.10;;;14.70;99.90;;;;;;5013671;28;20226;-66
2021/08/05 02:37:26;;;;;;;6.03;5.53;;;14.70;99.90;;;;;;5021018;28;20268;-67
2021/08/05 02:39:53;;;;;;;5.68;5.25;;;14.70;99.90;;;;;;5019954;28;20298;-67
2021/08/05 02:42:21;;;;;;;6.75;6.15;;;14.70;99.90;;;;;;5015802;28;20295;-67
2021/08/05 02:44:48;;;;;;;6.15;5.60;;;14.70;99.90;;;;;;5015498;28;20203;-66
2021/08/05 02:47:16;;;;;;;6.82;6.25;;;14.60;99.90;;;;;;5015409;28;20191;-67
2021/08/05 02:49:43;;;;;;;6.93;6.22;;;14.60;99.90;;;;;;5015359;28;20203;-67
2021/08/05 02:52:12;;;;;;;6.88;6.28;;;14.60;99.90;;;;;;5015018;28;20754;-67
2021/08/05 02:54:39;;;;;;;7.38;6.68;;;14.60;99.90;;;;;;5022261;28;20244;-66
2021/08/05 02:57:08;;;;;;;7.53;6.45;;;14.50;99.90;;;;;;5028196;28;20313;-66
2021/08/05 02:59:35;;;;;;;6.90;6.20;;;14.50;99.90;;;;;;5015281;28;20282;-67
2021/08/05 03:02:03;;;;;;;6.20;5.68;;;14.40;99.90;;;;;;5015084;28;20783;-67
2021/08/05 03:04:34;;;;;;;6.05;5.60;;;14.40;99.90;;;;;;5014337;28;20215;-66
2021/08/05 03:07:01;;;;;;;7.00;6.43;;;14.30;99.90;;;;;;5018579;28;20205;-66
2021/08/05 03:09:29;;;;;;;6.10;5.50;;;14.20;99.90;;;;;;5035241;28;20293;-66
2021/08/05 03:11:56;;;;;;;6.93;6.22;;;14.20;99.90;;;;;;5024267;28;20549;-67
2021/08/05 03:14:23;;;;;;;7.97;7.38;;;14.20;99.90;;;;;;5014885;28;20214;-67
2021/08/05 03:16:50;;;;;;;7.10;6.50;;;14.50;99.90;;;;;;5013025;28;20321;-67
2021/08/05 03:19:17;;;;;;;7.28;6.57;;;14.70;99.90;;;;;;5014736;28;20906;-66
2021/08/05 03:21:43;;;;;;;7.65;6.95;;;14.70;99.90;;;;;;5013177;28;20297;-66
2021/08/05 03:24:10;;;;;;;6.95;6.40;;;14.70;99.90;;;;;;5014471;28;20199;-66
2021/08/05 03:26:38;;;;;;;7.60;6.90;;;14.70;99.90;;;;;;5012845;28;20203;-66
2021/08/05 03:29:06;;;;;;;6.40;5.78;;;14.80;99.90;;;;;;5022441;28;20637;-67
2021/08/05 03:31:33;;;;;;;8.00;7.20;;;14.80;99.90;;;;;;5014620;28;20199;-66
2021/08/05 03:33:59;;;;;;;7.70;6.93;;;14.80;99.90;;;;;;5014356;28;20775;-66
2021/08/05 03:36:26;;;;;;;7.30;6.65;;;14.80;99.90;;;;;;5012438;28;20210;-67
2021/08/05 03:38:54;;;;;;;7.95;7.13;;;14.70;99.90;;;;;;5014924;28;20202;-67
2021/08/05 03:41:20;;;;;;;7.75;7.03;;;14.80;99.90;;;;;;5014699;28;20203;-66
2021/08/05 03:43:49;;;;;;;7.13;6.53;;;14.80;99.90;;;;;;5013717;28;20241;-67
2021/08/05 03:46:15;;;;;;;6.70;6.10;;;14.90;99.90;;;;;;5026171;28;20242;-66
2021/08/05 03:48:42;;;;;;;6.50;6.00;;;14.80;99.90;;;;;;5017313;28;20318;-67
2021/08/05 03:51:09;;;;;;;7.50;6.80;;;14.80;99.90;;;;;;5025438;28;20213;-67
2021/08/05 03:53:36;;;;;;;6.93;6.32;;;14.90;99.90;;;;;;5031952;28;20194;-67
2021/08/05 03:56:03;;;;;;;6.63;6.03;;;14.90;99.90;;;;;;5031548;28;20198;-66
2021/08/05 03:58:30;;;;;;;7.03;6.32;;;15.00;99.90;;;;;;5017244;28;20245;-66
2021/08/05 04:00:58;;;;;;;7.43;6.75;;;15.00;99.90;;;;;;5013776;28;20202;-66
2021/08/05 04:03:25;;;;;;;8.38;6.70;;;15.00;99.90;;;;;;5027722;28;20246;-67
2021/08/05 04:05:52;;;;;;;6.50;6.00;;;14.90;99.90;;;;;;5031254;28;20660;-66
2021/08/05 04:08:19;;;;;;;7.18;6.57;;;14.80;99.90;;;;;;5020042;28;20221;-66
2021/08/05 04:10:46;;;;;;;6.95;6.25;;;14.80;99.90;;;;;;5013381;28;20227;-66
2021/08/05 04:13:13;;;;;;;8.88;8.05;;;14.90;99.90;;;;;;5014219;28;20218;-67
2021/08/05 04:15:41;;;;;;;7.60;6.90;;;14.90;99.90;;;;;;5012443;28;20203;-67
2021/08/05 04:18:10;;;;;;;8.15;7.45;;;14.90;99.90;;;;;;5013940;28;20262;-66
2021/08/05 04:20:37;;;;;;;11.25;7.50;;;15.00;99.90;;;;;;5028655;28;20294;-67
2021/08/05 04:23:04;;;;;;;7.43;6.80;;;15.10;99.90;;;;;;5032107;28;20277;-67
2021/08/05 04:25:31;;;;;;;7.63;6.93;;;15.20;99.90;;;;;;5032774;28;20285;-66
2021/08/05 04:27:58;;;;;;;7.88;7.03;;;15.30;99.90;;;;;;5032362;28;20261;-66
2021/08/05 04:30:26;;;;;;;6.90;6.20;;;15.30;99.90;;;;;;5033317;28;20194;-66
2021/08/05 04:32:53;;;;;;;6.90;6.40;;;15.30;99.90;;;;;;5033122;28;20695;-66
2021/08/05 04:35:21;;;;;;;7.45;6.85;;;15.20;99.90;;;;;;5032907;28;20290;-66
2021/08/05 04:37:52;;;;;;;7.70;6.93;;;15.10;99.90;;;;;;5015061;28;20321;-67
2021/08/05 04:40:20;;;;;;;8.35;7.43;;;15.10;99.90;;;;;;5013098;28;20567;-67
2021/08/05 04:42:47;;;;;;;7.25;6.60;;;15.30;99.90;;;;;;5013505;28;20286;-67
2021/08/05 04:45:15;;;;;;;7.82;7.13;;;15.50;99.90;;;;;;5011169;28;20211;-67
2021/08/05 04:47:53;;;;;;;7.20;6.60;;;15.70;99.90;;;;;;5021854;28;20206;-67
2021/08/05 04:50:22;;;;;;;6.93;6.35;;;15.80;99.90;;;;;;5032744;28;20289;-66
2021/08/05 04:52:49;;;;;;;8.35;5.85;;;16.00;99.90;;;;;;5031414;28;20198;-66
2021/08/05 04:55:16;;;;;;;6.85;6.22;;;16.20;99.90;;;;;;5012849;28;20302;-66
2021/08/05 04:57:47;;;;;;;6.75;6.15;;;16.30;99.90;;;;;;5012956;28;20706;-67
2021/08/05 05:00:15;;;;;;;7.07;6.47;;;16.50;99.90;;;;;;5012910;28;20730;-67
2021/08/05 05:02:42;;;;;;;6.90;6.30;;;16.60;99.90;;;;;;5032955;28;20205;-67
2021/08/05 05:05:09;;;;;;;6.82;6.22;;;16.70;99.90;;;;;;5031240;28;20213;-67
2021/08/05 05:07:37;;;;;;;6.53;5.93;;;16.70;99.90;;;;;;5012401;28;20223;-67
2021/08/05 05:10:06;;;;;;;7.10;5.82;;;16.90;99.90;;;;;;5014700;28;20203;-67
2021/08/05 05:12:34;;;;;;;6.22;5.72;;;17.10;99.90;;;;;;5032474;28;20221;-67
2021/08/05 05:15:01;;;;;;;5.90;5.40;;;17.20;99.90;;;;;;5032531;28;20293;-67
2021/08/05 05:17:28;;;;;;;5.32;4.82;;;17.10;99.90;;;;;;5013028;28;20219;-67
2021/08/05 05:19:55;;;;;;;6.85;5.70;;;17.50;99.90;;;;;;5011728;28;20690;-67
2021/08/05 05:22:22;;;;;;;6.47;4.68;;;17.80;99.90;;;;;;5011117;28;20294;-67
2021/08/05 05:24:50;;;;;;;7.25;5.05;;;17.70;99.90;;;;;;5009845;28;20213;-68
2021/08/05 05:27:17;;;;;;;5.20;4.80;;;17.70;99.90;;;;;;5026083;28;20202;-67
2021/08/05 05:29:44;;;;;;;5.80;5.30;;;17.80;99.90;;;;;;5030782;28;20202;-67
2021/08/05 05:32:11;;;;;;;6.00;4.88;;;17.80;99.90;;;;;;5028455;28;20265;-67
2021/08/05 05:34:38;;;;;;;6.10;5.00;;;17.80;99.90;;;;;;5027115;28;20206;-67
2021/08/05 05:37:05;;;;;;;5.15;4.60;;;17.50;99.90;;;;;;5013786;28;20210;-67
2021/08/05 05:39:32;;;;;;;5.95;5.45;;;17.50;99.90;;;;;;5007464;28;21001;-67
2021/08/05 05:42:01;;;;;;;8.68;5.30;;;17.50;99.90;;;;;;5008150;28;20289;-67
2021/08/05 05:44:28;;;;;;;5.82;5.20;;;17.50;99.90;;;;;;5015035;28;20310;-67
2021/08/05 05:46:54;;;;;;;9.45;4.90;;;17.60;99.90;;;;;;5015041;28;20231;-67
2021/08/05 05:49:21;;;;;;;7.38;4.93;;;17.50;99.90;;;;;;5008957;28;20904;-67
2021/08/05 05:51:48;;;;;;;5.13;4.72;;;17.70;99.90;;;;;;5009121;28;20253;-67
2021/08/05 05:54:15;;;;;;;6.40;5.30;;;17.90;99.90;;;;;;5008717;28;20245;-67
2021/08/05 05:56:42;;;;;;;6.30;4.30;;;18.10;99.90;;;;;;5007769;28;20301;-67
2021/08/05 05:59:11;;;;;;;5.37;4.90;;;18.20;99.90;;;;;;5008643;28;20312;-67
2021/08/05 06:01:39;;;;;;;6.17;5.30;;;18.30;99.90;;;;;;5009279;28;20636;-67
2021/08/05 06:04:06;;;;;;;5.03;4.67;;;18.50;99.90;;;;;;5007787;28;21198;-67
2021/08/05 06:06:33;;;;;;;5.30;4.90;;;18.70;99.90;;;;;;5015660;28;20698;-67
2021/08/05 06:09:01;;;;;;;6.13;4.27;;;18.80;99.90;;;;;;5028125;28;20675;-67
2021/08/05 06:11:28;;;;;;;4.73;4.43;;;18.80;99.90;;;;;;5018450;28;20737;-67
2021/08/05 06:13:55;;;;;;;6.10;4.47;;;18.90;99.90;;;;;;5008917;28;20736;-67
2021/08/05 06:16:24;;;;;;;4.83;4.43;;;18.90;99.90;;;;;;5007223;28;20873;-67
2021/08/05 06:18:51;;;;;;;5.30;4.63;;;18.90;99.90;;;;;;5008146;28;21332;-67
2021/08/05 06:21:18;;;;;;;5.03;4.63;;;18.90;99.90;;;;;;5007665;28;20681;-67
2021/08/05 06:23:45;;;;;;;4.53;4.20;;;18.80;99.90;;;;;;5008760;28;20626;-67
2021/08/05 06:26:12;;;;;;;5.53;5.13;;;18.80;99.90;;;;;;5006942;28;20660;-68
2021/08/05 06:28:39;;;;;;;6.20;4.80;;;18.90;99.90;;;;;;5008410;28;20672;-68
2021/08/05 06:31:06;;;;;;;4.20;3.90;;;19.10;99.90;;;;;;5008803;28;20622;-68
2021/08/05 06:33:35;;;;;;;4.47;3.93;;;19.90;99.90;;;;;;5008921;28;20629;-67
2021/08/05 06:36:02;;;;;;;4.13;3.83;;;21.60;99.90;;;;;;5018011;28;20644;-67
2021/08/05 06:38:29;;;;;;;5.20;4.50;;;23.20;99.90;;;;;;5028168;28;21128;-68
2021/08/05 06:40:56;;;;;;;4.50;4.10;;;24.50;97.30;;;;;;5028000;28;20613;-68
2021/08/05 06:43:23;;;;;;;4.17;3.87;;;25.80;94.20;;;;;;5018355;28;20721;-68
2021/08/05 06:45:51;;;;;;;4.87;4.47;;;26.40;91.80;;;;;;5008195;28;20678;-68
2021/08/05 06:48:18;;;;;;;4.87;3.27;;;25.10;92.40;;;;;;5008620;28;20644;-68
2021/08/05 06:50:48;;;;;;;4.13;3.83;;;25.70;92.10;;;;;;5008008;28;20625;-68
2021/08/05 06:53:16;;;;;;;4.43;4.03;;;25.10;92.80;;;;;;5008020;28;20643;-68
2021/08/05 06:55:43;;;;;;;4.33;4.03;;;23.50;93.30;;;;;;5007209;28;20680;-68
2021/08/05 06:58:10;;;;;;;4.33;3.93;;;23.50;94.50;;;;;;5007892;28;21239;-68
2021/08/05 07:00:37;;;;;;;3.60;3.40;;;24.00;94.60;;;;;;5008510;28;21629;-68
2021/08/05 07:03:04;;;;;;;4.23;3.83;;;25.20;93.20;;;;;;5008593;28;21022;-68
2021/08/05 07:05:32;;;;;;;6.40;3.77;;;25.10;93.00;;;;;;5006938;28;20696;-68
2021/08/05 07:08:01;;;;;;;3.83;3.63;;;24.50;93.50;;;;;;5008073;28;20630;-68
2021/08/05 07:10:28;;;;;;;4.10;3.80;;;24.50;93.70;;;;;;5025986;28;20626;-68
2021/08/05 07:12:55;;;;;;;3.70;3.50;;;23.70;94.10;;;;;;5028552;28;20699;-68
2021/08/05 07:15:22;;;;;;;4.13;3.83;;;23.30;93.80;;;;;;5007813;28;21019;-67
2021/08/05 07:17:48;;;;;;;4.33;3.93;;;23.10;94.60;;;;;;5020076;28;20705;-67
2021/08/05 07:20:20;;;;;;;4.07;3.83;;;22.60;95.60;;;;;;5018382;28;20626;-67
2021/08/05 07:22:47;;;;;;;4.50;4.20;;;22.40;96.00;;;;;;5021853;28;20654;-67
2021/08/05 07:25:16;;;;;;;3.70;3.40;;;23.00;95.70;;;;;;5024166;28;20731;-67
2021/08/05 07:27:46;;;;;;;4.00;3.70;;;23.60;95.00;;;;;;5022619;28;21915;-67
2021/08/05 07:30:14;;;;;;;4.33;4.03;;;24.30;94.60;;;;;;5019002;28;21014;-67
2021/08/05 07:32:41;;;;;;;4.20;3.80;;;24.30;93.50;;;;;;5018731;28;20612;-67
2021/08/05 07:35:09;;;;;;;3.93;3.73;;;24.70;93.00;;;;;;5026686;28;20713;-67
2021/08/05 07:37:36;;;;;;;5.30;4.63;;;24.60;92.90;;;;;;5027584;28;21937;-67
2021/08/05 07:40:04;;;;;;;3.50;3.30;;;24.40;93.10;;;;;;5018864;28;21272;-67
2021/08/05 07:42:32;;;;;;;4.27;3.90;;;24.10;94.00;;;;;;5024353;28;21174;-67
2021/08/05 07:44:59;;;;;;;4.67;3.87;;;23.70;93.60;;;;;;5020472;28;20611;-67
2021/08/05 07:47:27;;;;;;;6.83;4.27;;;24.00;93.00;;;;;;5019290;28;20600;-67
2021/08/05 07:49:54;;;;;;;3.83;3.53;;;23.70;94.00;;;;;;5023300;28;20724;-67
2021/08/05 07:52:21;;;;;;;4.30;4.00;;;24.00;93.40;;;;;;5025698;28;20700;-67
2021/08/05 07:54:48;;;;;;;4.43;4.00;;;24.20;92.80;;;;;;5026096;28;20709;-67
2021/08/05 07:57:15;;;;;;;4.10;3.77;;;24.00;93.40;;;;;;5026242;28;20733;-68
2021/08/05 07:59:45;;;;;;;4.10;3.80;;;24.00;93.90;;;;;;5022376;28;20745;-67
2021/08/05 08:02:12;;;;;;;3.27;3.07;;;24.00;93.70;;;;;;5021503;28;21203;-68
2021/08/05 08:04:39;;;;;;;3.23;3.03;;;24.30;93.50;;;;;;5023785;28;20738;-67
2021/08/05 08:07:06;;;;;;;3.97;3.67;;;24.30;93.00;;;;;;5028083;28;20611;-68
2021/08/05 08:09:33;;;;;;;3.70;3.37;;;24.30;92.70;;;;;;5023074;28;20639;-68
2021/08/05 08:12:00;;;;;;;3.13;2.93;;;24.20;91.30;;;;;;5013684;28;21264;-67
2021/08/05 08:14:27;;;;;;;3.80;3.50;;;24.10;92.90;;;;;;5023185;28;21313;-67
2021/08/05 08:16:58;;;;;;;6.23;3.53;;;24.10;93.10;;;;;;5026813;28;20642;-68
2021/08/05 08:19:25;;;;;;;3.87;3.50;;;23.80;94.10;;;;;;5022899;28;20696;-68
2021/08/05 08:21:51;;;;;;;4.70;3.90;;;23.60;94.10;;;;;;5022114;28;20739;-67
2021/08/05 08:24:20;;;;;;;3.50;3.20;;;23.40;94.00;;;;;;5022845;28;20631;-68
2021/08/05 08:26:47;;;;;;;3.70;3.40;;;23.30;93.90;;;;;;5021326;28;20640;-68
2021/08/05 08:29:13;;;;;;;4.03;3.63;;;23.00;94.20;;;;;;5029468;28;20691;-68
2021/08/05 08:31:40;;;;;;;3.60;3.40;;;22.90;94.10;;;;;;5026795;28;20637;-68
2021/08/05 08:34:09;;;;;;;3.60;3.30;;;22.50;95.40;;;;;;5017096;28;20669;-68
2021/08/05 08:36:35;;;;;;;4.17;3.50;;;22.50;94.80;;;;;;5020616;28;20668;-68
2021/08/05 08:39:03;;;;;;;3.47;3.23;;;22.60;95.00;;;;;;5023263;28;20779;-68
2021/08/05 08:41:33;;;;;;;3.53;3.23;;;22.80;94.50;;;;;;5023781;28;21266;-68
2021/08/05 08:44:00;;;;;;;5.00;3.57;;;22.70;93.80;;;;;;5018883;28;21274;-67
2021/08/05 08:46:27;;;;;;;3.87;3.30;;;22.70;94.10;;;;;;5018287;28;21004;-67
2021/08/05 08:48:56;;;;;;;3.53;3.33;;;22.80;94.40;;;;;;5016670;28;20669;-67
2021/08/05 08:51:26;;;;;;;3.73;3.53;;;23.00;93.90;;;;;;5016922;28;21454;-67
2021/08/05 08:53:55;;;;;;;3.20;3.00;;;23.30;93.40;;;;;;5014705;28;21008;-67
2021/08/05 08:56:23;;;;;;;4.50;4.10;;;23.30;93.00;;;;;;5017358;28;20641;-67
2021/08/05 08:58:51;;;;;;;3.70;3.40;;;23.30;92.50;;;;;;5023883;28;21080;-67
2021/08/05 09:01:18;;;;;;;3.30;3.10;;;23.40;92.20;;;;;;5026857;28;21199;-67
2021/08/05 09:03:46;;;;;;;3.50;3.20;;;23.20;92.70;;;;;;5024885;28;20723;-67
2021/08/05 09:06:13;;;;;;;3.23;3.03;;;23.10;93.40;;;;;;5022475;28;20746;-67
2021/08/05 09:08:41;;;;;;;3.00;2.80;;;23.00;94.10;;;;;;5021993;28;21069;-67
2021/08/05 09:11:09;;;;;;;3.30;3.10;;;23.00;93.60;;;;;;5018859;28;20708;-67
2021/08/05 09:13:36;;;;;;;3.00;2.80;;;23.30;93.40;;;;;;5019467;28;20649;-67
2021/08/05 09:16:23;;;;;;;3.70;3.33;;;23.50;92.80;;;;;;5018471;28;20700;-67
2021/08/05 09:18:53;;;;;;;3.00;2.80;;;23.60;92.10;;;;;;5014460;28;20709;-67
2021/08/05 09:21:22;;;;;;;2.90;2.70;;;24.00;91.40;;;;;;5018751;28;20641;-67
2021/08/05 09:24:01;;;;;;;3.50;3.20;;;23.90;93.10;;;;;;5021681;28;20734;-67
2021/08/05 09:26:33;;;;;;;3.03;2.83;;;24.70;91.10;;;;;;5016995;28;21152;-67
2021/08/05 09:29:11;;;;;;;3.10;2.90;;;26.60;86.40;;;;;;5013754;28;20673;-67
2021/08/05 09:31:44;;;;;;;3.20;3.00;;;27.70;83.30;;;;;;5014760;28;20988;-68
2021/08/05 09:34:14;;;;;;;2.40;2.20;;;28.00;80.30;;;;;;5026786;28;20668;-67
2021/08/05 09:36:43;;;;;;;2.67;2.57;;;29.00;79.10;;;;;;5022256;28;20736;-68
2021/08/05 09:39:22;;;;;;;2.90;2.67;;;29.00;78.40;;;;;;5023693;28;20672;-67
2021/08/05 09:42:01;;;;;;;3.83;2.90;;;29.20;77.20;;;;;;5023675;28;20633;-68
2021/08/05 09:44:42;;;;;;;4.60;3.07;;;29.00;78.80;;;;;;5024817;28;20660;-68
2021/08/05 09:47:11;;;;;;;3.00;2.80;;;29.00;76.50;;;;;;5022973;28;20625;-68
2021/08/05 09:49:38;;;;;;;2.30;2.20;;;28.30;78.60;;;;;;5014302;28;20728;-68
2021/08/05 09:52:09;;;;;;;2.70;2.50;;;27.00;81.10;;;;;;5016109;28;20633;-68
2021/08/05 09:54:40;;;;;;;3.10;2.90;;;26.60;82.30;;;;;;5018020;28;20736;-67
2021/08/05 09:57:07;;;;;;;2.37;2.27;;;27.10;81.50;;;;;;5021383;28;21344;-70
2021/08/05 09:59:34;;;;;;;2.70;2.50;;;27.90;77.70;;;;;;5015534;28;20732;-70
2021/08/05 10:02:03;;;;;;;3.00;2.67;;;27.90;78.70;;;;;;5025432;28;20660;-70
2021/08/05 10:04:32;;;;;;;2.67;2.47;;;28.30;78.10;;;;;;5016706;28;20634;-71
2021/08/05 10:07:03;;;;;;;2.40;2.30;;;29.00;75.30;;;;;;5022440;28;20653;-70
2021/08/05 10:09:31;;;;;;;3.00;2.60;;;29.00;75.50;;;;;;5022040;28;20746;-71
2021/08/05 10:12:19;;;;;;;2.10;2.00;;;28.10;76.20;;;;;;5022033;28;20637;-69
2021/08/05 10:14:48;;;;;;;2.30;2.20;;;27.00;76.30;;;;;;5019719;28;20639;-69
2021/08/05 10:17:16;;;;;;;2.23;2.13;;;27.10;79.20;;;;;;5020533;28;20836;-69
2021/08/05 10:19:45;;;;;;;2.37;2.27;;;26.10;83.00;;;;;;5017976;28;20791;-70
2021/08/05 10:22:15;;;;;;;2.27;2.17;;;25.30;81.90;;;;;;5019597;28;21533;-68
2021/08/05 10:24:45;;;;;;;2.80;2.60;;;24.60;84.50;;;;;;5025325;28;20643;-68
2021/08/05 10:27:15;;;;;;;1.87;1.77;;;24.30;88.40;;;;;;5026614;28;20724;-69
2021/08/05 10:29:43;;;;;;;2.17;1.97;;;24.90;87.10;;;;;;5025151;28;20644;-68
2021/08/05 10:32:12;;;;;;;1.97;1.80;;;25.60;82.90;;;;;;5025737;28;20643;-70
2021/08/05 10:34:40;;;;;;;2.43;2.23;;;25.80;84.60;;;;;;5015757;28;21088;-69
2021/08/05 10:37:10;;;;;;;2.00;1.90;;;25.70;81.90;;;;;;5026813;28;20640;-68
2021/08/05 10:39:37;;;;;;;2.23;2.13;;;25.40;82.90;;;;;;5010691;28;20713;-67
2021/08/05 10:42:08;;;;;;;2.10;2.00;;;25.10;83.40;;;;;;5020642;28;20984;-66
2021/08/05 10:44:38;;;;;;;2.17;2.07;;;25.10;83.10;;;;;;5024823;28;20751;-67
2021/08/05 10:47:07;;;;;;;2.20;2.10;;;25.20;87.30;;;;;;5030079;28;20628;-67
2021/08/05 10:49:34;;;;;;;2.20;1.80;;;25.40;84.40;;;;;;5020369;28;20732;-67
2021/08/05 10:52:02;;;;;;;1.90;1.80;;;25.60;85.40;;;;;;5023032;28;20664;-67
2021/08/05 10:54:57;;;;;;;1.90;1.70;;;25.70;86.60;;;;;;5025435;28;20657;-67
2021/08/05 10:57:27;;;;;;;1.93;1.83;;;26.10;83.30;;;;;;5020374;28;20622;-67
2021/08/05 11:00:08;;;;;;;2.00;1.80;;;25.90;80.40;;;;;;5026236;28;20667;-67
2021/08/05 11:02:50;;;;;;;1.60;1.53;;;25.80;83.10;;;;;;5018366;28;20650;-67
2021/08/05 11:05:45;;;;;;;1.90;1.80;;;25.70;80.30;;;;;;5017247;28;20711;-67
2021/08/05 11:08:27;;;;;;;1.90;1.80;;;25.90;84.90;;;;;;5024023;28;20701;-66
2021/08/05 11:11:31;;;;;;;2.40;2.30;;;26.50;86.40;;;;;;5026044;28;20698;-66
2021/08/05 11:14:35;;;;;;;2.30;2.20;;;27.10;80.90;;;;;;5017367;28;21138;-67
2021/08/05 11:17:06;;;;;;;2.00;1.90;;;26.70;80.70;;;;;;5021043;28;20647;-67
2021/08/05 11:19:35;;;;;;;1.30;1.30;;;26.20;79.90;;;;;;5023802;28;21044;-67
2021/08/05 11:22:47;;;;;;;1.67;1.60;;;25.80;82.30;;;;;;5027043;28;20629;-67
2021/08/05 11:25:14;;;;;;;1.70;1.60;;;25.60;81.60;;;;;;4996351;28;20637;-67
2021/08/05 11:27:46;;;;;;;1.90;1.80;;;25.70;82.70;;;;;;5019588;28;20633;-66
2021/08/05 11:30:45;;;;;;;1.70;1.60;;;26.30;83.70;;;;;;5023254;28;20640;-66
2021/08/05 11:34:02;;;;;;;2.00;1.90;;;26.90;82.30;;;;;;5019750;28;20991;-67
2021/08/05 11:36:36;;;;;;;1.80;1.70;;;27.60;79.70;;;;;;5023588;28;20640;-66
2021/08/05 11:39:09;;;;;;;1.97;1.77;;;27.70;75.10;;;;;;5023141;28;20673;-67
2021/08/05 11:41:56;;;;;;;1.70;1.60;;;26.90;74.80;;;;;;5017337;28;20625;-66
2021/08/05 11:44:32;;;;;;;4.90;2.00;;;26.70;79.90;;;;;;5025259;28;20626;-67
2021/08/05 11:47:20;;;;;;;1.87;1.40;;;26.50;78.40;;;;;;5028440;28;20989;-66
2021/08/05 11:49:56;;;;;;;1.90;1.53;;;26.40;78.60;;;;;;5019972;28;21008;-66
2021/08/05 11:52:31;;;;;;;2.70;1.50;;;26.50;79.90;;;;;;5029293;28;21026;-67
2021/08/05 11:55:00;;;;;;;1.60;1.50;;;26.90;80.10;;;;;;5018528;28;20637;-67
2021/08/05 11:57:27;;;;;;;1.40;1.37;;;26.90;82.20;;;;;;5015088;28;20648;-67
2021/08/05 11:59:57;;;;;;;1.33;1.33;;;27.00;80.60;;;;;;5015806;28;21110;-67
2021/08/05 12:02:25;;;;;;;2.27;2.07;;;27.20;81.00;;;;;;5024393;28;20720;-67
2021/08/05 12:04:54;;;;;;;3.20;1.53;;;27.10;78.90;;;;;;5025241;28;20629;-67
2021/08/05 12:07:28;;;;;;;1.63;1.53;;;26.80;82.80;;;;;;5022645;28;20731;-67
2021/08/05 12:10:01;;;;;;;1.30;1.30;;;26.40;78.00;;;;;;5024589;28;20626;-66
2021/08/05 12:12:30;;;;;;;3.20;1.43;;;26.20;79.00;;;;;;5028923;28;20637;-67
2021/08/05 12:14:58;;;;;;;1.73;1.63;;;26.00;84.10;;;;;;5014549;28;20664;-66
2021/08/05 12:17:50;;;;;;;1.70;1.60;;;26.50;82.00;;;;;;5018836;28;20994;-66
2021/08/05 12:20:21;;;;;;;1.80;1.70;;;26.60;82.70;;;;;;5008671;28;20673;-66
2021/08/05 12:22:52;;;;;;;1.77;1.67;;;26.90;78.00;;;;;;5014310;28;20976;-66
2021/08/05 12:25:26;;;;;;;1.20;1.20;;;26.60;79.70;;;;;;5019189;28;20632;-67
2021/08/05 12:27:59;;;;;;;1.50;1.40;;;27.00;78.50;;;;;;5023549;28;20633;-67
2021/08/05 12:30:35;;;;;;;1.40;1.40;;;26.80;78.00;;;;;;5018887;28;20633;-67
2021/08/05 12:33:06;;;;;;;1.90;1.80;;;26.40;80.00;;;;;;5017724;28;20636;-67
2021/08/05 12:35:34;;;;;;;1.30;1.30;;;26.50;83.20;;;;;;5020241;28;20715;-66
2021/08/05 12:38:08;;;;;;;2.17;2.07;;;26.70;76.40;;;;;;5015511;28;20626;-66
2021/08/05 12:40:42;;;;;;;1.50;1.50;;;26.90;78.80;;;;;;5017579;28;21215;-66
2021/08/05 12:43:13;;;;;;;1.57;1.57;;;26.40;77.20;;;;;;5024849;28;21031;-66
2021/08/05 12:45:42;;;;;;;1.70;1.60;;;26.30;79.10;;;;;;5024698;28;20633;-66
2021/08/05 12:48:10;;;;;;;2.50;1.90;;;26.40;80.20;;;;;;5017132;28;20639;-66
2021/08/05 12:50:39;;;;;;;1.70;1.60;;;26.10;81.30;;;;;;5016671;28;20633;-66
2021/08/05 12:53:08;;;;;;;1.93;1.83;;;25.40;83.00;;;;;;5024791;28;20642;-66
2021/08/05 12:55:47;;;;;;;1.87;1.77;;;25.30;84.40;;;;;;5015244;28;20742;-66
2021/08/05 12:58:18;;;;;;;1.83;1.73;;;24.80;82.10;;;;;;5015213;28;20985;-66
2021/08/05 13:00:45;;;;;;;1.83;1.73;;;24.50;85.60;;;;;;5022626;28;20687;-66